Time,TemperatureF,DewpointF,PressureIn,WindDirection,WindDirectionDegrees,WindSpeedMPH,WindSpeedGustMPH,Humidity,HourlyPrecipIn,Conditions,Clouds,dailyrainin,SolarRadiationWatts/m^2,SoftwareType,DateUTC
2013-01-26 00:01:00,33.0,31.0,-100.00,NW,304,2.0,5.0,92,0.01,,,0.04,0.000000,,2013-01-26 07:01:00,
2013-01-26 00:02:00,33.0,31.0,-100.00,NW,323,2.0,4.0,92,0.00,,,0.04,0.000000,,2013-01-26 07:02:00,
2013-01-26 00:33:00,33.0,31.0,-100.00,NW,323,2.0,4.0,92,0.00,,,0.04,0.000000,,2013-01-26 07:33:00,
2013-01-26 00:42:00,33.0,31.0,-100.00,NW,323,2.0,4.0,92,0.00,,,0.04,0.000000,,2013-01-26 07:42:00,
2013-01-26 00:51:00,33.0,31.0,-100.00,NW,323,2.0,4.0,92,0.00,,,0.04,0.000000,,2013-01-26 07:51:00,
2013-01-26 01:32:00,34.0,32.0,-100.00,NW,311,2.0,4.0,91,0.00,,,0.04,0.000000,,2013-01-26 08:32:00,
2013-01-26 01:42:00,34.0,32.0,-100.00,NW,311,2.0,4.0,91,0.00,,,0.04,0.000000,,2013-01-26 08:42:00,
2013-01-26 01:53:00,34.0,32.0,-100.00,NW,311,2.0,4.0,91,0.00,,,0.04,0.000000,,2013-01-26 08:53:00,
2013-01-26 02:01:00,34.0,32.0,-100.00,NW,311,2.0,4.0,91,0.00,,,0.04,0.000000,,2013-01-26 09:01:00,
2013-01-26 02:32:00,34.0,31.0,-100.00,NW,310,1.0,3.0,90,0.00,,,0.04,0.000000,,2013-01-26 09:32:00,
2013-01-26 02:42:00,34.0,31.0,-100.00,NW,310,1.0,3.0,90,0.00,,,0.04,0.000000,,2013-01-26 09:42:00,
2013-01-26 02:52:00,34.0,31.0,-100.00,NW,310,1.0,3.0,90,0.00,,,0.04,0.000000,,2013-01-26 09:52:00,
2013-01-26 03:01:00,34.0,31.0,-100.00,NW,310,1.0,3.0,90,0.00,,,0.04,0.000000,,2013-01-26 10:01:00,
2013-01-26 03:32:00,34.0,31.0,-100.00,WNW,282,2.0,4.0,89,0.00,,,0.04,0.000000,,2013-01-26 10:32:00,
2013-01-26 03:42:00,34.0,31.0,-100.00,WNW,282,2.0,4.0,89,0.00,,,0.04,0.000000,,2013-01-26 10:42:00,
2013-01-26 03:52:00,34.0,31.0,-100.00,WNW,282,2.0,4.0,89,0.00,,,0.04,0.000000,,2013-01-26 10:52:00,
2013-01-26 04:01:00,34.0,31.0,-100.00,WNW,282,2.0,4.0,89,0.00,,,0.04,0.000000,,2013-01-26 11:01:00,
2013-01-26 04:32:00,33.0,30.0,-100.00,WSW,241,2.0,6.0,87,0.00,,,0.04,0.000000,,2013-01-26 11:32:00,
2013-01-26 04:42:00,33.0,30.0,-100.00,WSW,241,2.0,6.0,87,0.00,,,0.04,0.000000,,2013-01-26 11:42:00,
2013-01-26 04:52:00,33.0,30.0,-100.00,WSW,241,2.0,6.0,87,0.00,,,0.04,0.000000,,2013-01-26 11:52:00,
2013-01-26 05:01:00,33.0,30.0,-100.00,WSW,241,2.0,6.0,87,0.00,,,0.04,0.000000,,2013-01-26 12:01:00,
2013-01-26 05:02:00,33.0,29.0,-100.00,SW,236,3.0,10.0,85,0.00,,,0.04,0.000000,,2013-01-26 12:02:00,
2013-01-26 05:33:00,33.0,29.0,-100.00,SW,236,3.0,10.0,85,0.00,,,0.04,0.000000,,2013-01-26 12:33:00,
2013-01-26 05:42:00,33.0,29.0,-100.00,SW,236,3.0,10.0,85,0.00,,,0.04,0.000000,,2013-01-26 12:42:00,
2013-01-26 05:53:00,33.0,29.0,-100.00,SW,236,3.0,10.0,85,0.00,,,0.04,0.000000,,2013-01-26 12:53:00,
2013-01-26 06:02:00,33.0,29.0,-100.00,West,270,4.0,9.0,86,0.00,,,-99.99,0.000000,,2013-01-26 13:02:00,
2013-01-26 06:33:00,33.0,29.0,-100.00,West,270,4.0,9.0,86,0.00,,,-99.99,0.000000,,2013-01-26 13:33:00,
2013-01-26 06:42:00,33.0,29.0,-100.00,West,270,4.0,9.0,86,0.00,,,-99.99,0.000000,,2013-01-26 13:42:00,
2013-01-26 06:53:00,33.0,29.0,-100.00,West,270,4.0,9.0,86,0.00,,,-99.99,0.000000,,2013-01-26 13:53:00,
2013-01-26 07:02:00,34.0,29.0,-100.00,SSW,197,4.0,10.0,81,0.00,,,0.04,0.000000,,2013-01-26 14:02:00,
2013-01-26 07:32:00,34.0,29.0,-100.00,SSW,197,4.0,10.0,81,0.00,,,0.04,0.000000,,2013-01-26 14:32:00,
2013-01-26 07:43:00,34.0,29.0,-100.00,SSW,197,4.0,10.0,81,0.00,,,0.04,0.000000,,2013-01-26 14:43:00,
2013-01-26 07:53:00,34.0,29.0,-100.00,SSW,197,4.0,10.0,81,0.00,,,0.04,0.000000,,2013-01-26 14:53:00,
2013-01-26 08:33:00,34.0,28.0,-100.00,West,276,2.0,8.0,79,0.00,,,0.04,0.000000,,2013-01-26 15:33:00,
2013-01-26 08:43:00,34.0,28.0,-100.00,West,276,2.0,8.0,79,0.00,,,0.04,0.000000,,2013-01-26 15:43:00,
2013-01-26 08:52:00,34.0,28.0,-100.00,West,276,2.0,8.0,79,0.00,,,0.04,0.000000,,2013-01-26 15:52:00,
2013-01-26 09:01:00,34.0,28.0,-100.00,West,276,2.0,8.0,79,0.00,,,0.04,0.000000,,2013-01-26 16:01:00,
2013-01-26 09:02:00,35.0,28.0,-100.00,WSW,237,3.0,10.0,74,0.00,,,0.04,18.000000,,2013-01-26 16:02:00,
2013-01-26 09:33:00,35.0,28.0,-100.00,WSW,237,3.0,10.0,74,0.00,,,0.04,18.000000,,2013-01-26 16:33:00,
2013-01-26 09:43:00,35.0,28.0,-100.00,WSW,237,3.0,10.0,74,0.00,,,0.04,18.000000,,2013-01-26 16:43:00,
2013-01-26 09:53:00,35.0,28.0,-100.00,WSW,237,3.0,10.0,74,0.00,,,0.04,18.000000,,2013-01-26 16:53:00,
2013-01-26 10:02:00,36.0,29.0,-100.00,SW,222,3.0,9.0,75,0.00,,,0.04,56.000000,,2013-01-26 17:02:00,
2013-01-26 10:33:00,36.0,29.0,-100.00,SW,222,3.0,9.0,75,0.00,,,0.04,56.000000,,2013-01-26 17:33:00,
2013-01-26 10:42:00,36.0,29.0,-100.00,SW,222,3.0,9.0,75,0.00,,,0.04,56.000000,,2013-01-26 17:42:00,
2013-01-26 10:53:00,36.0,29.0,-100.00,SW,222,3.0,9.0,75,0.00,,,0.04,56.000000,,2013-01-26 17:53:00,
2013-01-26 11:02:00,38.0,28.0,-100.00,SSE,166,4.0,8.0,67,0.00,,,0.04,114.000000,,2013-01-26 18:02:00,
2013-01-26 11:33:00,38.0,28.0,-100.00,SSE,166,4.0,8.0,67,0.00,,,0.04,114.000000,,2013-01-26 18:33:00,
2013-01-26 11:42:00,38.0,28.0,-100.00,SSE,166,4.0,8.0,67,0.00,,,0.04,114.000000,,2013-01-26 18:42:00,
2013-01-26 11:52:00,38.0,28.0,-100.00,SSE,166,4.0,8.0,67,0.00,,,0.04,114.000000,,2013-01-26 18:52:00,
2013-01-26 12:02:00,35.0,27.0,-100.00,WSW,248,4.0,12.0,72,0.00,,,0.04,117.000000,,2013-01-26 19:02:00,
2013-01-26 12:22:00,35.0,27.0,-100.00,WSW,248,4.0,12.0,72,0.00,,,0.04,117.000000,,2013-01-26 19:22:00,
2013-01-26 12:33:00,35.0,27.0,-100.00,WSW,248,4.0,12.0,72,0.00,,,0.04,117.000000,,2013-01-26 19:33:00,
2013-01-26 12:42:00,35.0,27.0,-100.00,WSW,248,4.0,12.0,72,0.00,,,0.04,117.000000,,2013-01-26 19:42:00,
2013-01-26 12:52:00,35.0,27.0,-100.00,WSW,248,4.0,12.0,72,0.00,,,0.04,117.000000,,2013-01-26 19:52:00,
2013-01-26 13:02:00,33.0,29.0,-100.00,North,357,2.0,15.0,84,0.00,,,0.04,140.000000,,2013-01-26 20:02:00,
2013-01-26 13:32:00,33.0,29.0,-100.00,North,357,2.0,15.0,84,0.00,,,0.04,140.000000,,2013-01-26 20:32:00,
2013-01-26 13:42:00,33.0,29.0,-100.00,North,357,2.0,15.0,84,0.00,,,0.04,140.000000,,2013-01-26 20:42:00,
2013-01-26 13:52:00,33.0,29.0,-100.00,North,357,2.0,15.0,84,0.00,,,0.04,140.000000,,2013-01-26 20:52:00,
2013-01-26 14:23:00,31.0,28.0,-100.00,SSE,149,2.0,6.0,89,0.00,,,0.04,143.000000,,2013-01-26 21:23:00,
2013-01-26 14:32:00,31.0,28.0,-100.00,SSE,149,2.0,6.0,89,0.00,,,0.04,143.000000,,2013-01-26 21:32:00,
2013-01-26 14:43:00,31.0,28.0,-100.00,SSE,149,2.0,6.0,89,0.00,,,0.04,143.000000,,2013-01-26 21:43:00,
2013-01-26 14:52:00,31.0,28.0,-100.00,SSE,149,2.0,6.0,89,0.00,,,0.04,143.000000,,2013-01-26 21:52:00,
2013-01-26 15:01:00,31.0,28.0,-100.00,SSE,149,2.0,6.0,89,0.00,,,0.04,143.000000,,2013-01-26 22:01:00,
2013-01-26 15:32:00,33.0,29.0,-100.00,SSE,159,4.0,5.0,85,0.00,,,0.04,177.000000,,2013-01-26 22:32:00,
2013-01-26 15:42:00,33.0,29.0,-100.00,SSE,159,4.0,5.0,85,0.00,,,0.04,177.000000,,2013-01-26 22:42:00,
2013-01-26 15:52:00,33.0,29.0,-100.00,SSE,159,4.0,5.0,85,0.00,,,0.04,177.000000,,2013-01-26 22:52:00,
2013-01-26 16:01:00,33.0,29.0,-100.00,SSE,159,4.0,5.0,85,0.00,,,0.04,177.000000,,2013-01-26 23:01:00,
2013-01-26 16:22:00,30.0,27.0,-100.00,ESE,110,2.0,6.0,88,0.00,,,0.04,71.000000,,2013-01-26 23:22:00,
2013-01-26 16:32:00,30.0,27.0,-100.00,ESE,110,2.0,6.0,88,0.00,,,0.04,71.000000,,2013-01-26 23:32:00,
2013-01-26 16:42:00,30.0,27.0,-100.00,ESE,110,2.0,6.0,88,0.00,,,0.04,71.000000,,2013-01-26 23:42:00,
2013-01-26 16:52:00,30.0,27.0,-100.00,ESE,110,2.0,6.0,88,0.00,,,0.04,71.000000,,2013-01-26 23:52:00,
2013-01-26 17:01:00,30.0,27.0,-100.00,ESE,110,2.0,6.0,88,0.00,,,0.04,71.000000,,2013-01-27 00:01:00,
2013-01-26 17:32:00,29.0,25.0,-100.00,SE,143,1.0,3.0,85,0.00,,,0.04,26.000000,,2013-01-27 00:32:00,
2013-01-26 17:42:00,29.0,25.0,-100.00,SE,143,1.0,3.0,85,0.00,,,0.04,26.000000,,2013-01-27 00:42:00,
2013-01-26 17:52:00,29.0,25.0,-100.00,SE,143,1.0,3.0,85,0.00,,,0.04,26.000000,,2013-01-27 00:52:00,
2013-01-26 18:01:00,29.0,25.0,-100.00,SE,143,1.0,3.0,85,0.00,,,0.04,26.000000,,2013-01-27 01:01:00,
2013-01-26 18:32:00,28.0,25.0,-100.00,NE,44,2.0,3.0,90,0.00,,,0.04,2.000000,,2013-01-27 01:32:00,
2013-01-26 18:42:00,28.0,25.0,-100.00,NE,44,2.0,3.0,90,0.00,,,0.04,2.000000,,2013-01-27 01:42:00,
2013-01-26 18:52:00,28.0,25.0,-100.00,NE,44,2.0,3.0,90,0.00,,,0.04,2.000000,,2013-01-27 01:52:00,
2013-01-26 19:01:00,28.0,25.0,-100.00,NE,44,2.0,3.0,90,0.00,,,0.04,2.000000,,2013-01-27 02:01:00,
2013-01-26 19:22:00,26.0,23.0,-100.00,NW,307,1.0,4.0,90,0.00,,,0.04,0.000000,,2013-01-27 02:22:00,
2013-01-26 19:32:00,26.0,23.0,-100.00,NW,307,1.0,4.0,90,0.00,,,0.04,0.000000,,2013-01-27 02:32:00,
2013-01-26 19:42:00,26.0,23.0,-100.00,NW,307,1.0,4.0,90,0.00,,,0.04,0.000000,,2013-01-27 02:42:00,
2013-01-26 19:52:00,26.0,23.0,-100.00,NW,307,1.0,4.0,90,0.00,,,0.04,0.000000,,2013-01-27 02:52:00,
2013-01-26 20:01:00,26.0,23.0,-100.00,NW,307,1.0,4.0,90,0.00,,,0.04,0.000000,,2013-01-27 03:01:00,
2013-01-26 20:32:00,26.0,23.0,-100.00,WSW,256,1.0,2.0,87,0.00,,,0.03,0.000000,,2013-01-27 03:32:00,
2013-01-26 20:42:00,26.0,23.0,-100.00,WSW,256,1.0,2.0,87,0.00,,,0.03,0.000000,,2013-01-27 03:42:00,
2013-01-26 20:52:00,26.0,23.0,-100.00,WSW,256,1.0,2.0,87,0.00,,,0.03,0.000000,,2013-01-27 03:52:00,
2013-01-26 21:01:00,26.0,23.0,-100.00,WSW,256,1.0,2.0,87,0.00,,,0.03,0.000000,,2013-01-27 04:01:00,
2013-01-26 21:02:00,26.0,22.0,-100.00,West,261,1.0,2.0,85,0.00,,,0.02,0.000000,,2013-01-27 04:02:00,
2013-01-26 21:32:00,26.0,22.0,-100.00,West,261,1.0,2.0,85,0.00,,,0.02,0.000000,,2013-01-27 04:32:00,
2013-01-26 21:42:00,26.0,22.0,-100.00,West,261,1.0,2.0,85,0.00,,,0.02,0.000000,,2013-01-27 04:42:00,
2013-01-26 21:52:00,26.0,22.0,-100.00,West,261,1.0,2.0,85,0.00,,,0.02,0.000000,,2013-01-27 04:52:00,
2013-01-26 22:22:00,26.0,22.0,-100.00,West,276,0.0,3.0,86,0.00,,,0.01,0.000000,,2013-01-27 05:22:00,
2013-01-26 22:32:00,26.0,22.0,-100.00,West,276,0.0,3.0,86,0.00,,,0.01,0.000000,,2013-01-27 05:32:00,
2013-01-26 22:42:00,26.0,22.0,-100.00,West,276,0.0,3.0,86,0.00,,,0.01,0.000000,,2013-01-27 05:42:00,
2013-01-26 22:52:00,26.0,22.0,-100.00,West,276,0.0,3.0,86,0.00,,,0.01,0.000000,,2013-01-27 05:52:00,
2013-01-26 23:01:00,26.0,22.0,-100.00,West,276,0.0,3.0,86,0.00,,,0.01,0.000000,,2013-01-27 06:01:00,
2013-01-26 23:21:00,25.0,21.0,-100.00,SSW,201,2.0,5.0,84,0.00,,,0.00,0.000000,,2013-01-27 06:21:00,
2013-01-26 23:32:00,25.0,21.0,-100.00,SSW,201,2.0,5.0,84,0.00,,,0.00,0.000000,,2013-01-27 06:32:00,
2013-01-26 23:42:00,25.0,21.0,-100.00,SSW,201,2.0,5.0,84,0.00,,,0.00,0.000000,,2013-01-27 06:42:00,
2013-01-26 23:52:00,25.0,21.0,-100.00,SSW,201,2.0,5.0,84,0.00,,,0.00,0.000000,,2013-01-27 06:52:00,